createdAt,value
2019-04-05T00:00:41.678Z,10.40
2019-04-05T00:03:10.979Z,10.30
2019-04-05T00:05:40.231Z,10.07
2019-04-05T00:08:09.243Z,9.80
2019-04-05T00:10:38.007Z,9.90
2019-04-05T00:13:07.558Z,9.60
2019-04-05T00:15:38.094Z,9.50
2019-04-05T00:18:06.908Z,9.80
2019-04-05T00:20:36.472Z,10.00
2019-04-05T00:23:05.189Z,10.53
2019-04-05T00:25:34.484Z,10.43
2019-04-05T00:28:04.067Z,10.43
2019-04-05T00:30:33.397Z,10.37
2019-04-05T00:33:02.131Z,10.33
2019-04-05T00:35:30.888Z,10.43
2019-04-05T00:37:59.627Z,10.03
2019-04-05T00:40:28.368Z,10.27
2019-04-05T00:42:57.129Z,10.37
2019-04-05T00:45:28.467Z,9.90
2019-04-05T00:47:56.612Z,10.63
2019-04-05T00:50:25.924Z,9.57
2019-04-05T00:52:55.258Z,10.40
2019-04-05T00:55:24.358Z,10.37
2019-04-05T00:57:53.361Z,10.33
2019-04-05T01:00:22.388Z,10.40
2019-04-05T01:02:51.664Z,10.00
2019-04-05T01:05:20.955Z,10.83
2019-04-05T01:08:02.045Z,9.53
2019-04-05T01:10:42.748Z,11.30
2019-04-05T01:13:12.010Z,10.10
2019-04-05T01:16:00.480Z,10.17
2019-04-05T01:18:29.359Z,10.33
2019-04-05T01:23:32.863Z,10.20
2019-04-05T01:26:20.834Z,9.80
2019-04-05T01:28:50.005Z,10.67
2019-04-05T01:31:19.161Z,10.50
2019-04-05T01:34:07.134Z,9.27
2019-04-05T01:36:55.837Z,9.40
2019-04-05T01:39:44.038Z,9.80
2019-04-05T01:42:32.481Z,10.37
2019-04-05T01:45:20.434Z,11.23
2019-04-05T01:48:08.621Z,9.53
2019-04-05T01:50:56.823Z,9.60
2019-04-05T01:53:25.466Z,8.90
2019-04-05T01:56:13.686Z,10.30
2019-04-05T01:59:01.630Z,10.03
2019-04-05T02:01:49.819Z,9.03
2019-04-05T02:04:37.782Z,9.50
2019-04-05T02:07:18.589Z,10.43
2019-04-05T02:09:59.518Z,9.43
2019-04-05T02:12:40.874Z,10.27
2019-04-05T02:15:21.658Z,10.37
2019-04-05T02:18:02.687Z,10.40
2019-04-05T02:20:43.524Z,9.80
2019-04-05T02:23:12.490Z,10.03
2019-04-05T02:26:00.454Z,9.73
2019-04-05T02:28:48.641Z,10.70
2019-04-05T02:31:36.691Z,10.53
2019-04-05T02:34:24.658Z,10.67
2019-04-05T02:37:12.891Z,9.90
2019-04-05T02:40:01.091Z,9.67
2019-04-05T02:42:49.702Z,10.13
2019-04-05T02:45:18.337Z,9.40
2019-04-05T02:48:06.866Z,10.73
2019-04-05T02:50:55.315Z,10.47
2019-04-05T02:53:43.275Z,10.03
2019-04-05T02:56:31.223Z,11.10
2019-04-05T02:59:19.784Z,9.70
2019-04-05T03:02:07.724Z,9.40
2019-04-05T03:04:55.733Z,8.80
2019-04-05T03:07:36.283Z,10.00
2019-04-05T03:10:04.949Z,9.93
2019-04-05T03:12:52.894Z,9.10
2019-04-05T03:15:40.866Z,10.13
2019-04-05T03:18:28.804Z,9.80
2019-04-05T03:21:16.759Z,10.30
2019-04-05T03:24:05.022Z,9.73
2019-04-05T03:26:54.930Z,10.10
2019-04-05T03:29:42.888Z,9.40
2019-04-05T03:32:30.931Z,10.43
2019-04-05T03:35:18.974Z,9.23
2019-04-05T03:38:06.965Z,9.63
2019-04-05T03:40:54.905Z,10.00
2019-04-05T03:43:42.862Z,10.37
2019-04-05T03:46:30.817Z,10.00
2019-04-05T03:52:17.974Z,9.93
2019-04-05T03:55:05.982Z,9.47
2019-04-05T03:57:54.523Z,9.17
2019-04-05T04:00:43.542Z,9.60
2019-04-05T04:03:31.992Z,8.90
2019-04-05T04:06:20.470Z,9.50
2019-04-05T04:09:00.863Z,9.80
2019-04-05T04:11:42.033Z,9.30
2019-04-05T04:14:22.815Z,9.27
2019-04-05T04:17:11.920Z,9.60
2019-04-05T04:19:47.326Z,9.37
2019-04-05T04:22:40.272Z,9.33
2019-04-05T04:25:28.494Z,9.63
2019-04-05T04:28:16.698Z,9.67
2019-04-05T04:30:45.566Z,9.27
2019-04-05T04:33:34.060Z,8.77
2019-04-05T04:36:22.276Z,9.00
2019-04-05T04:39:10.262Z,9.50
2019-04-05T04:41:58.194Z,8.87
2019-04-05T04:44:46.418Z,9.50
2019-04-05T04:47:25.664Z,9.70
2019-04-05T04:49:45.532Z,8.37
2019-04-05T04:52:33.500Z,9.57
2019-04-05T04:55:22.022Z,9.20
2019-04-05T04:58:10.242Z,9.13
2019-04-05T05:00:58.457Z,9.40
2019-04-05T05:03:46.454Z,8.70
2019-04-05T05:06:15.106Z,9.60
2019-04-05T05:08:55.672Z,9.07
2019-04-05T05:11:36.567Z,9.00
2019-04-05T05:14:17.348Z,8.70
2019-04-05T05:16:46.031Z,9.80
2019-04-05T05:19:33.960Z,9.60
2019-04-05T05:22:21.932Z,9.00
2019-04-05T05:25:09.952Z,10.23
2019-04-05T05:27:58.016Z,9.37
2019-04-05T05:30:46.001Z,9.67
2019-04-05T05:33:14.906Z,8.10
2019-04-05T05:35:43.526Z,8.67
2019-04-05T05:41:30.712Z,8.10
2019-04-05T05:44:18.648Z,8.37
2019-04-05T05:47:06.863Z,9.43
2019-04-05T05:49:55.665Z,8.93
2019-04-05T05:52:43.854Z,9.50
2019-04-05T05:55:31.809Z,8.70
2019-04-05T05:58:19.744Z,8.73
2019-04-05T06:01:07.714Z,9.23
2019-04-05T06:03:55.758Z,9.40
2019-04-05T06:06:43.693Z,9.23
2019-04-05T06:09:31.733Z,8.43
2019-04-05T06:12:19.784Z,8.80
2019-04-05T06:15:07.802Z,8.00
2019-04-05T06:18:04.694Z,9.17
2019-04-05T06:20:45.958Z,8.97
2019-04-05T06:23:34.399Z,9.10
2019-04-05T06:26:23.841Z,8.30
2019-04-05T06:29:12.108Z,9.40
2019-04-05T06:32:00.661Z,8.43
2019-04-05T06:34:48.961Z,8.50
2019-04-05T06:37:37.155Z,8.40
2019-04-05T06:40:25.365Z,9.53
2019-04-05T06:43:13.302Z,8.80
2019-04-05T06:46:01.594Z,9.13
2019-04-05T06:48:51.174Z,8.93
2019-04-05T06:51:39.121Z,8.30
2019-04-05T06:54:27.073Z,7.60
2019-04-05T06:57:15.289Z,8.20
2019-04-05T07:00:03.842Z,8.10
2019-04-05T07:02:51.893Z,8.63
2019-04-05T07:05:40.439Z,8.60
2019-04-05T07:08:28.374Z,8.20
2019-04-05T07:11:08.771Z,8.30
2019-04-05T07:13:49.881Z,7.70
2019-04-05T07:16:31.449Z,7.60
2019-04-05T07:19:14.414Z,7.97
2019-04-05T07:21:56.491Z,8.50
2019-04-05T07:24:37.130Z,7.57
2019-04-05T07:27:18.934Z,7.43
2019-04-05T07:29:50.757Z,8.23
2019-04-05T07:32:43.594Z,8.33
2019-04-05T07:35:34.805Z,8.00
2019-04-05T07:38:23.702Z,8.27
2019-04-05T07:40:54.046Z,8.60
2019-04-05T07:43:23.207Z,7.50
2019-04-05T07:46:12.211Z,7.57
2019-04-05T07:49:00.145Z,7.97
2019-04-05T07:51:48.582Z,7.13
2019-04-05T07:54:36.794Z,7.63
2019-04-05T07:57:24.766Z,7.50
2019-04-05T08:00:42.040Z,7.40
2019-04-05T08:03:29.979Z,7.47
2019-04-05T08:06:17.954Z,7.50
2019-04-05T08:09:09.721Z,8.03
2019-04-05T08:11:50.194Z,7.93
2019-04-05T08:14:19.112Z,8.00
2019-04-05T08:17:07.053Z,8.20
2019-04-05T08:19:35.958Z,7.30
2019-04-05T08:22:24.006Z,7.90
2019-04-05T08:24:52.661Z,7.50
2019-04-05T08:27:21.292Z,7.70
2019-04-05T08:29:49.922Z,7.80
2019-04-05T08:32:37.887Z,7.47
2019-04-05T08:35:25.961Z,7.77
2019-04-05T08:38:13.897Z,7.87
2019-04-05T08:40:42.850Z,7.40
2019-04-05T08:43:31.046Z,7.30
2019-04-05T08:46:19.104Z,8.30
2019-04-05T08:49:10.928Z,7.40
2019-04-05T08:51:37.694Z,7.57
2019-04-05T08:54:06.325Z,6.93
2019-04-05T08:56:54.830Z,7.70
2019-04-05T08:59:42.782Z,7.80
2019-04-05T09:02:11.718Z,7.73
2019-04-05T09:04:40.630Z,7.77
2019-04-05T09:07:09.778Z,6.40
2019-04-05T09:09:58.214Z,7.83
2019-04-05T09:12:28.143Z,7.33
2019-04-05T09:14:56.852Z,6.90
2019-04-05T09:17:25.778Z,7.77
2019-04-05T09:20:13.745Z,7.40
2019-04-05T09:23:02.475Z,7.87
2019-04-05T09:25:31.110Z,6.97
2019-04-05T09:27:59.770Z,7.50
2019-04-05T09:30:28.488Z,7.20
2019-04-05T09:33:16.714Z,7.37
2019-04-05T09:35:45.338Z,7.17
2019-04-05T09:38:13.975Z,6.80
2019-04-05T09:40:42.652Z,7.03
2019-04-05T09:43:31.192Z,7.10
2019-04-05T09:46:19.407Z,6.47
2019-04-05T09:49:07.877Z,7.67
2019-04-05T09:51:36.509Z,7.17
2019-04-05T09:54:05.729Z,6.30
2019-04-05T09:56:34.631Z,6.10
2019-04-05T09:59:03.898Z,6.17
2019-04-05T10:01:32.534Z,6.97
2019-04-05T10:04:01.156Z,7.27
2019-04-05T10:06:49.363Z,7.40
2019-04-05T10:09:37.842Z,6.87
2019-04-05T10:12:18.549Z,6.40
2019-04-05T10:14:47.960Z,7.17
2019-04-05T10:17:36.754Z,6.83
2019-04-05T10:20:06.434Z,6.80
2019-04-05T10:22:54.954Z,7.00
2019-04-05T10:25:23.899Z,6.67
2019-04-05T10:28:12.131Z,6.10
2019-04-05T10:31:00.348Z,5.70
2019-04-05T10:33:29.337Z,6.60
2019-04-05T10:36:19.827Z,6.40
2019-04-05T10:39:08.596Z,6.30
2019-04-05T10:42:03.330Z,6.37
2019-04-05T10:44:46.461Z,6.37
2019-04-05T10:47:15.317Z,5.90
2019-04-05T10:50:03.862Z,6.17
2019-04-05T10:52:32.537Z,6.77
2019-04-05T10:55:01.158Z,6.40
2019-04-05T10:57:49.351Z,6.50
2019-04-05T11:00:18.547Z,5.93
2019-04-05T11:03:06.734Z,6.07
2019-04-05T11:05:55.217Z,6.40
2019-04-05T11:08:24.354Z,5.80
2019-04-05T11:10:53.252Z,5.90
2019-04-05T11:13:22.462Z,5.87
2019-04-05T11:15:51.349Z,6.30
2019-04-05T11:18:20.535Z,6.07
2019-04-05T11:21:08.757Z,5.90
2019-04-05T11:23:37.655Z,6.30
2019-04-05T11:26:26.169Z,5.70
2019-04-05T11:28:55.170Z,6.00
2019-04-05T11:31:24.054Z,5.90
2019-04-05T11:34:25.722Z,6.20
2019-04-05T11:37:19.713Z,5.67
2019-04-05T11:39:48.729Z,6.20
2019-04-05T11:42:17.595Z,5.83
2019-04-05T11:44:46.802Z,5.90
2019-04-05T11:47:35.009Z,5.53
2019-04-05T11:50:04.334Z,6.20
2019-04-05T11:52:33.209Z,5.60
2019-04-05T11:55:04.561Z,5.97
2019-04-05T11:57:32.710Z,6.20
2019-04-05T12:03:04.027Z,5.50
2019-04-05T12:05:33.430Z,6.23
2019-04-05T12:08:02.432Z,5.80
2019-04-05T12:10:50.710Z,5.70
2019-04-05T12:13:31.155Z,5.90
2019-04-05T12:16:12.498Z,5.50
2019-04-05T12:18:53.319Z,5.27
2019-04-05T12:21:22.486Z,5.43
2019-04-05T12:24:10.430Z,6.13
2019-04-05T12:26:58.687Z,5.60
2019-04-05T12:29:47.141Z,5.90
2019-04-05T12:34:52.656Z,5.80
2019-04-05T12:37:22.468Z,6.23
2019-04-05T12:40:11.247Z,5.77
2019-04-05T12:42:42.904Z,6.23
2019-04-05T12:45:14.675Z,6.07
2019-04-05T12:47:45.367Z,5.80
2019-04-05T12:50:31.419Z,6.30
2019-04-05T12:53:00.609Z,5.93
2019-04-05T12:55:49.058Z,5.83
2019-04-05T12:58:37.505Z,6.17
2019-04-05T13:01:08.282Z,6.07
2019-04-05T13:03:36.742Z,6.27
2019-04-05T13:06:24.933Z,5.93
2019-04-05T13:09:13.981Z,5.63
2019-04-05T13:11:43.102Z,5.80
2019-04-05T13:14:26.171Z,6.20
2019-04-05T13:17:06.844Z,6.30
2019-04-05T13:19:35.766Z,6.03
2019-04-05T13:22:24.006Z,5.43
2019-04-05T13:24:53.057Z,5.70
2019-04-05T13:27:21.671Z,5.70
2019-04-05T13:29:50.538Z,5.53
2019-04-05T13:32:21.661Z,5.37
2019-04-05T13:35:09.286Z,5.53
2019-04-05T13:37:38.167Z,5.70
2019-04-05T13:40:07.284Z,6.30
2019-04-05T13:42:35.945Z,6.17
2019-04-05T13:45:24.357Z,6.90
2019-04-05T13:47:53.474Z,6.10
2019-04-05T13:50:22.360Z,5.77
2019-04-05T13:52:51.508Z,5.80
2019-04-05T13:55:20.116Z,5.50
2019-04-05T13:58:10.722Z,6.40
2019-04-05T14:00:58.004Z,5.37
2019-04-05T14:03:46.484Z,5.90
2019-04-05T14:06:36.379Z,5.30
2019-04-05T14:09:24.598Z,6.93
2019-04-05T14:12:09.214Z,5.60
2019-04-05T14:14:37.029Z,6.00
2019-04-05T14:17:06.458Z,5.70
2019-04-05T14:19:35.310Z,6.23
2019-04-05T14:24:40.446Z,6.40
2019-04-05T14:27:09.345Z,6.60
2019-04-05T14:29:37.974Z,6.60
2019-04-05T14:32:20.460Z,6.47
2019-04-05T14:34:36.945Z,5.90
2019-04-05T14:37:05.901Z,6.30
2019-04-05T14:39:54.365Z,6.70
2019-04-05T14:42:42.604Z,5.57
2019-04-05T14:45:31.984Z,6.20
2019-04-05T14:48:00.893Z,6.73
2019-04-05T14:50:49.650Z,6.47
2019-04-05T14:53:18.826Z,5.93
2019-04-05T14:56:06.764Z,6.20
2019-04-05T14:58:35.944Z,5.97
2019-04-05T15:01:04.808Z,6.40
2019-04-05T15:03:53.088Z,6.00
2019-04-05T15:06:22.078Z,6.27
2019-04-05T15:09:10.281Z,6.33
2019-04-05T15:11:59.287Z,7.97
2019-04-05T15:14:28.023Z,6.80
2019-04-05T15:16:56.642Z,6.37
2019-04-05T15:19:25.518Z,6.00
2019-04-05T15:22:13.469Z,6.43
2019-04-05T15:25:01.439Z,6.77
2019-04-05T15:27:30.054Z,6.63
2019-04-05T15:29:59.028Z,6.97
2019-04-05T15:32:47.367Z,6.67
2019-04-05T15:35:16.256Z,6.40
2019-04-05T15:37:45.426Z,7.23
2019-04-05T15:40:14.276Z,6.33
2019-04-05T15:42:42.919Z,7.30
2019-04-05T15:45:15.726Z,7.33
2019-04-05T15:48:01.267Z,7.23
2019-04-05T15:50:51.650Z,7.27
2019-04-05T15:53:39.914Z,6.90
2019-04-05T15:56:27.841Z,7.10
2019-04-05T15:59:15.785Z,6.43
2019-04-05T16:02:04.438Z,7.10
2019-04-05T16:04:34.980Z,7.03
2019-04-05T16:07:23.254Z,7.23
2019-04-05T16:10:11.457Z,6.80
2019-04-05T16:12:51.902Z,6.90
2019-04-05T16:15:33.218Z,6.87
2019-04-05T16:18:02.134Z,6.80
2019-04-05T16:20:31.257Z,7.33
2019-04-05T16:23:00.383Z,7.03
2019-04-05T16:25:48.594Z,6.97
2019-04-05T16:28:36.542Z,7.50
2019-04-05T16:31:24.494Z,6.57
2019-04-05T16:33:53.719Z,6.57
2019-04-05T16:36:22.607Z,7.30
2019-04-05T16:39:14.826Z,6.80
2019-04-05T16:42:03.046Z,7.10
2019-04-05T16:44:51.805Z,6.37
2019-04-05T16:47:21.062Z,7.57
2019-04-05T16:49:50.237Z,7.30
2019-04-05T16:52:44.849Z,8.03
2019-04-05T16:55:28.466Z,7.30
2019-04-05T16:57:57.365Z,7.00
2019-04-05T17:00:25.973Z,7.67
2019-04-05T17:03:14.177Z,7.17
2019-04-05T17:05:43.041Z,7.00
2019-04-05T17:08:31.247Z,6.83
2019-04-05T17:11:19.571Z,7.30
2019-04-05T17:14:00.714Z,7.50
2019-04-05T17:16:29.626Z,7.53
2019-04-05T17:19:17.948Z,7.57
2019-04-05T17:22:06.231Z,8.03
2019-04-05T17:24:34.977Z,7.00
2019-04-05T17:27:03.673Z,7.63
2019-04-05T17:29:32.321Z,6.97
2019-04-05T17:32:20.769Z,7.30
2019-04-05T17:34:49.376Z,7.30
2019-04-05T17:37:37.345Z,7.40
2019-04-05T17:40:25.915Z,6.80
2019-04-05T17:43:00.964Z,7.57
2019-04-05T17:45:30.239Z,7.77
2019-04-05T17:48:34.623Z,7.70
2019-04-05T17:51:10.853Z,7.43
2019-04-05T17:53:39.753Z,7.57
2019-04-05T17:56:27.969Z,7.20
2019-04-05T17:59:16.045Z,7.30
2019-04-05T18:01:44.749Z,7.70
2019-04-05T18:04:32.345Z,7.33
2019-04-05T18:07:00.897Z,7.50
2019-04-05T18:09:50.019Z,7.20
2019-04-05T18:12:18.997Z,7.30
2019-04-05T18:15:12.529Z,7.40
2019-04-05T18:17:56.819Z,7.93
2019-04-05T18:20:28.579Z,7.03
2019-04-05T18:22:57.550Z,6.83
2019-04-05T18:25:45.947Z,7.57
2019-04-05T18:28:14.969Z,6.70
2019-04-05T18:30:44.515Z,7.30
2019-04-05T18:34:12.224Z,7.33
2019-04-05T18:36:48.936Z,7.53
2019-04-05T18:39:37.450Z,7.40
2019-04-05T18:42:07.221Z,7.70
2019-04-05T18:44:36.486Z,6.73
2019-04-05T18:50:02.755Z,7.63
2019-04-05T18:52:24.802Z,7.73
2019-04-05T18:54:53.953Z,7.70
2019-04-05T18:57:23.326Z,7.80
2019-04-05T19:00:11.926Z,8.00
2019-04-05T19:02:59.313Z,7.53
2019-04-05T19:05:16.533Z,7.83
2019-04-05T19:10:56.767Z,8.20
2019-04-05T19:13:37.294Z,7.60
2019-04-05T19:16:06.036Z,7.20
2019-04-05T19:18:54.294Z,7.63
2019-04-05T19:21:42.972Z,7.20
2019-04-05T19:24:31.150Z,8.10
2019-04-05T19:29:56.322Z,7.53
2019-04-05T19:50:58.145Z,7.90
2019-04-05T19:53:26.799Z,8.63
2019-04-05T19:55:55.702Z,7.87
2019-04-05T19:58:24.329Z,7.80
2019-04-05T20:00:52.971Z,7.80
2019-04-05T20:03:40.917Z,7.37
2019-04-05T20:06:09.570Z,7.83
2019-04-05T20:08:57.771Z,6.93
2019-04-05T20:11:26.425Z,7.60
2019-04-05T20:14:07.222Z,7.47
2019-04-05T20:16:36.138Z,7.97
2019-04-05T20:19:05.074Z,8.03
2019-04-05T20:21:33.942Z,7.73
2019-04-05T20:24:13.322Z,7.93
2019-04-05T20:26:52.742Z,7.00
2019-04-05T20:29:40.972Z,7.60
2019-04-05T20:32:10.366Z,8.30
2019-04-05T20:34:39.278Z,7.47
2019-04-05T20:37:08.436Z,8.20
2019-04-05T20:39:56.430Z,7.87
2019-04-05T20:42:25.333Z,7.80
2019-04-05T20:44:55.378Z,7.47
2019-04-05T20:47:43.634Z,8.17
2019-04-05T20:50:31.845Z,8.00
2019-04-05T20:53:20.044Z,7.93
2019-04-05T20:55:48.693Z,7.73
2019-04-05T20:58:36.902Z,8.17
2019-04-05T21:01:25.389Z,7.73
2019-04-05T21:03:54.529Z,8.30
2019-04-05T21:06:23.161Z,8.37
2019-04-05T21:08:52.311Z,8.17
2019-04-05T21:11:40.535Z,8.83
2019-04-05T21:14:22.112Z,8.20
2019-04-05T21:17:02.919Z,9.20
2019-04-05T21:19:31.801Z,8.30
2019-04-05T21:24:49.189Z,8.77
2019-04-05T21:27:18.374Z,8.20
2019-04-05T21:30:06.592Z,8.87
2019-04-05T21:32:35.267Z,8.47
2019-04-05T21:35:23.723Z,8.57
2019-04-05T21:38:11.692Z,9.17
2019-04-05T21:40:59.647Z,8.17
2019-04-05T21:43:47.631Z,8.17
2019-04-05T21:46:16.294Z,8.67
2019-04-05T21:48:45.226Z,9.03
2019-04-05T21:51:14.423Z,8.17
2019-04-05T21:53:43.399Z,8.33
2019-04-05T21:56:31.644Z,7.50
2019-04-05T21:59:19.850Z,8.20
2019-04-05T22:01:48.655Z,8.27
2019-04-05T22:04:36.943Z,8.33
2019-04-05T22:07:25.158Z,8.80
2019-04-05T22:10:13.335Z,8.77
2019-04-05T22:13:01.281Z,8.37
2019-04-05T22:15:42.603Z,7.87
2019-04-05T22:18:11.789Z,8.50
2019-04-05T22:20:59.746Z,8.10
2019-04-05T22:23:47.694Z,8.10
2019-04-05T22:26:16.357Z,9.03
2019-04-05T22:29:04.563Z,8.10
2019-04-05T22:31:33.228Z,8.00
2019-04-05T22:34:21.525Z,8.10
2019-04-05T22:37:09.478Z,7.97
2019-04-05T22:39:38.126Z,7.83
2019-04-05T22:42:07.273Z,8.20
2019-04-05T22:44:38.984Z,8.37
2019-04-05T22:47:26.690Z,8.77
2019-04-05T22:49:55.576Z,8.43
2019-04-05T22:52:24.472Z,8.20
2019-04-05T22:55:12.665Z,8.30
2019-04-05T22:57:41.813Z,7.53
2019-04-05T23:00:30.285Z,8.70
2019-04-05T23:02:59.421Z,8.73
2019-04-05T23:05:47.631Z,8.50
2019-04-05T23:08:35.839Z,8.63
2019-04-05T23:11:05.653Z,8.43
2019-04-05T23:13:53.609Z,8.70
2019-04-05T23:16:22.522Z,8.90
2019-04-05T23:19:10.498Z,8.70
2019-04-05T23:22:00.849Z,7.83
2019-04-05T23:24:48.355Z,8.47
2019-04-05T23:27:16.962Z,9.13
2019-04-05T23:29:45.887Z,9.00
2019-04-05T23:32:33.859Z,8.57
2019-04-05T23:35:21.837Z,8.60
2019-04-05T23:38:09.790Z,8.67
2019-04-05T23:40:38.421Z,9.13
2019-04-05T23:43:26.406Z,9.10
2019-04-05T23:46:14.417Z,9.83
2019-04-05T23:49:02.346Z,9.17
2019-04-05T23:51:50.336Z,8.97
2019-04-05T23:54:38.268Z,8.83
2019-04-05T23:57:26.242Z,9.07
